Time;durP1;ratioP1;P1;durP2;ratioP2;P2;SDS_P1;SDS_P2;PMS_P1;PMS_P2;Temp;Humidity;BMP_temperature;BMP_pressure;BME280_temperature;BME280_humidity;BME280_pressure;Samples;Min_cycle;Max_cycle;Signal;HPM_P1;HPM_P2
2023/05/06 00:01:14;;;;;;;12.27;10.93;;;;;;;;;;5149735;28;20030;-73
2023/05/06 00:03:46;;;;;;;13.27;10.90;;;;;;;;;;5165443;28;20031;-73
2023/05/06 00:06:17;;;;;;;11.70;10.47;;;;;;;;;;5153907;28;20113;-73
2023/05/06 00:08:48;;;;;;;12.87;10.40;;;;;;;;;;5163668;28;20118;-73
2023/05/06 00:11:19;;;;;;;11.23;10.17;;;;;;;;;;5161651;28;20618;-74
2023/05/06 00:13:51;;;;;;;12.67;10.53;;;;;;;;;;5155480;28;20019;-73
2023/05/06 00:16:22;;;;;;;11.80;10.60;;;;;;;;;;5166648;28;20027;-73
2023/05/06 00:18:53;;;;;;;11.23;10.13;;;;;;;;;;5158625;28;20018;-73
2023/05/06 00:21:25;;;;;;;11.73;10.53;;;;;;;;;;5158711;28;20027;-73
2023/05/06 00:23:57;;;;;;;12.20;10.90;;;;;;;;;;5165401;28;20070;-73
2023/05/06 00:26:28;;;;;;;12.17;10.97;;;;;;;;;;5153558;28;20043;-73
2023/05/06 00:28:59;;;;;;;11.87;10.67;;;;;;;;;;5232630;28;21081;-73
2023/05/06 00:31:30;;;;;;;12.77;11.33;;;;;;;;;;5154530;28;20134;-73
2023/05/06 00:34:02;;;;;;;13.50;12.10;;;;;;;;;;5152383;28;20485;-73
2023/05/06 00:36:33;;;;;;;11.90;10.73;;;;;;;;;;5163999;28;20485;-73
2023/05/06 00:39:04;;;;;;;11.97;10.87;;;;;;;;;;5159273;28;20080;-73
2023/05/06 00:41:36;;;;;;;14.30;12.37;;;;;;;;;;5154926;28;20031;-73
2023/05/06 00:44:07;;;;;;;12.50;11.20;;;;;;;;;;5168401;28;20026;-73
2023/05/06 00:46:38;;;;;;;15.73;11.80;;;;;;;;;;5219894;28;20034;-73
2023/05/06 00:49:10;;;;;;;12.70;11.50;;;;;;;;;;5159678;28;20522;-73
2023/05/06 00:51:41;;;;;;;11.77;10.57;;;;;;;;;;5165049;28;20080;-73
2023/05/06 00:54:13;;;;;;;11.23;10.13;;;;;;;;;;5253597;28;20106;-73
2023/05/06 00:56:44;;;;;;;13.13;11.83;;;;;;;;;;5169364;28;20370;-73
2023/05/06 00:59:15;;;;;;;11.80;10.53;;;;;;;;;;5159310;28;20015;-73
2023/05/06 01:01:47;;;;;;;16.20;12.93;;;;;;;;;;5164942;28;20027;-73
2023/05/06 01:04:20;;;;;;;12.77;11.47;;;;;;;;;;5152286;28;20011;-73
2023/05/06 01:06:51;;;;;;;12.80;11.50;;;;;;;;;;5162575;28;20479;-73
2023/05/06 01:09:37;;;;;;;13.03;11.13;;;;;;;;;;5150234;28;20019;-73
2023/05/06 01:12:13;;;;;;;12.67;11.40;;;;;;;;;;5165469;28;20084;-73
2023/05/06 01:15:05;;;;;;;12.93;11.30;;;;;;;;;;5156393;28;20026;-73
2023/05/06 01:17:38;;;;;;;12.93;11.63;;;;;;;;;;5156609;28;20058;-72
2023/05/06 01:20:14;;;;;;;13.60;11.25;;;;;;;;;;5164061;28;20026;-73
2023/05/06 01:22:45;;;;;;;14.30;11.23;;;;;;;;;;5156081;28;20016;-73
2023/05/06 01:25:18;;;;;;;11.80;10.70;;;;;;;;;;5221738;28;20047;-73
2023/05/06 01:27:49;;;;;;;12.03;10.80;;;;;;;;;;5164269;28;20030;-72
2023/05/06 01:30:21;;;;;;;12.30;11.10;;;;;;;;;;5153227;28;20019;-73
2023/05/06 01:33:02;;;;;;;12.00;10.63;;;;;;;;;;5161400;28;20460;-71
2023/05/06 01:35:48;;;;;;;13.27;11.93;;;;;;;;;;5161176;28;20026;-72
2023/05/06 01:38:28;;;;;;;12.50;11.37;;;;;;;;;;5218997;28;20015;-72
2023/05/06 01:41:00;;;;;;;12.67;11.40;;;;;;;;;;5161254;28;20023;-72
2023/05/06 01:43:34;;;;;;;12.03;10.83;;;;;;;;;;5161805;28;20023;-72
2023/05/06 01:46:07;;;;;;;12.68;11.15;;;;;;;;;;5219470;28;20126;-72
2023/05/06 01:48:38;;;;;;;13.17;11.73;;;;;;;;;;5163455;28;20020;-72
2023/05/06 01:51:09;;;;;;;13.23;11.93;;;;;;;;;;5158103;28;20041;-71
2023/05/06 01:53:40;;;;;;;11.33;10.33;;;;;;;;;;5154810;28;20469;-72
2023/05/06 01:56:12;;;;;;;12.67;10.50;;;;;;;;;;5230973;28;20441;-72
2023/05/06 01:58:43;;;;;;;14.03;11.03;;;;;;;;;;5155538;28;20015;-72
2023/05/06 02:01:14;;;;;;;10.97;9.70;;;;;;;;;;5158659;28;20122;-72
2023/05/06 02:03:45;;;;;;;11.52;10.43;;;;;;;;;;5163289;28;20072;-71
2023/05/06 02:06:16;;;;;;;11.43;10.17;;;;;;;;;;5152031;28;20039;-72
2023/05/06 02:08:48;;;;;;;15.47;12.67;;;;;;;;;;5161834;28;20015;-72
2023/05/06 02:11:19;;;;;;;13.07;11.90;;;;;;;;;;5159597;28;20023;-72
2023/05/06 02:13:50;;;;;;;12.63;11.33;;;;;;;;;;5153526;28;20015;-72
2023/05/06 02:16:21;;;;;;;11.87;10.60;;;;;;;;;;5164218;28;20046;-72
2023/05/06 02:18:53;;;;;;;11.07;9.90;;;;;;;;;;5155693;28;20019;-72
2023/05/06 02:21:24;;;;;;;14.03;9.73;;;;;;;;;;5156358;28;20054;-72
2023/05/06 02:23:55;;;;;;;11.33;9.67;;;;;;;;;;5164501;28;20043;-72
2023/05/06 02:26:26;;;;;;;12.17;10.63;;;;;;;;;;5218453;28;20057;-72
2023/05/06 02:28:58;;;;;;;11.83;10.60;;;;;;;;;;5160817;28;20407;-72
2023/05/06 02:31:29;;;;;;;17.45;11.63;;;;;;;;;;5160571;28;20026;-72
2023/05/06 02:34:00;;;;;;;12.63;10.17;;;;;;;;;;5152201;28;20020;-71
2023/05/06 02:36:32;;;;;;;11.18;10.07;;;;;;;;;;5163397;28;20536;-72
2023/05/06 02:39:03;;;;;;;11.83;10.73;;;;;;;;;;5157818;28;20784;-71
2023/05/06 02:41:34;;;;;;;11.30;10.20;;;;;;;;;;5155359;28;20039;-72
2023/05/06 02:44:06;;;;;;;10.90;9.87;;;;;;;;;;5163956;28;20707;-72
2023/05/06 02:46:37;;;;;;;11.27;10.07;;;;;;;;;;5219591;28;20027;-72
2023/05/06 02:49:08;;;;;;;13.23;11.07;;;;;;;;;;5157938;28;20023;-72
2023/05/06 02:51:39;;;;;;;13.38;10.90;;;;;;;;;;5161921;28;20023;-72
2023/05/06 02:54:10;;;;;;;12.10;10.80;;;;;;;;;;5151463;28;20029;-72
2023/05/06 02:56:42;;;;;;;12.05;10.75;;;;;;;;;;5228465;28;20035;-72
2023/05/06 02:59:13;;;;;;;11.30;10.20;;;;;;;;;;5158068;28;20015;-72
2023/05/06 03:01:44;;;;;;;12.50;10.57;;;;;;;;;;5152296;28;20081;-72
2023/05/06 03:04:16;;;;;;;13.20;10.77;;;;;;;;;;5149408;28;20019;-73
2023/05/06 03:06:47;;;;;;;11.23;10.00;;;;;;;;;;5161355;28;20047;-72
2023/05/06 03:09:18;;;;;;;14.43;10.80;;;;;;;;;;5224758;28;20474;-72
2023/05/06 03:11:49;;;;;;;11.07;9.97;;;;;;;;;;5152999;28;20023;-72
2023/05/06 03:14:20;;;;;;;12.27;9.77;;;;;;;;;;5230560;28;20460;-72
2023/05/06 03:16:52;;;;;;;11.70;10.48;;;;;;;;;;5154387;28;20074;-72
2023/05/06 03:19:23;;;;;;;10.67;9.53;;;;;;;;;;5213178;28;20026;-72
2023/05/06 03:21:54;;;;;;;10.57;9.50;;;;;;;;;;5151455;28;20062;-72
2023/05/06 03:24:25;;;;;;;11.97;9.50;;;;;;;;;;5148008;28;20077;-73
2023/05/06 03:26:57;;;;;;;9.67;8.67;;;;;;;;;;5148000;28;20035;-72
2023/05/06 03:29:28;;;;;;;10.17;9.07;;;;;;;;;;5147609;28;20016;-72
2023/05/06 03:32:05;;;;;;;11.10;9.97;;;;;;;;;;5147784;28;20077;-73
2023/05/06 03:34:36;;;;;;;10.37;9.27;;;;;;;;;;5147262;28;20020;-72
2023/05/06 03:37:08;;;;;;;11.13;10.03;;;;;;;;;;5147481;28;20031;-72
2023/05/06 03:39:40;;;;;;;10.30;9.10;;;;;;;;;;5148151;28;20102;-72
2023/05/06 03:42:11;;;;;;;10.90;9.80;;;;;;;;;;5147646;28;20446;-73
2023/05/06 03:44:42;;;;;;;12.30;9.57;;;;;;;;;;5149136;28;20023;-72
2023/05/06 03:47:13;;;;;;;10.80;8.70;;;;;;;;;;5167813;28;20112;-72
2023/05/06 03:49:44;;;;;;;9.53;8.53;;;;;;;;;;5167059;28;20011;-73
2023/05/06 03:52:15;;;;;;;11.43;8.27;;;;;;;;;;5167907;28;20458;-72
2023/05/06 03:54:47;;;;;;;9.90;8.27;;;;;;;;;;5168512;28;20088;-72
2023/05/06 03:57:18;;;;;;;9.00;8.10;;;;;;;;;;5166764;28;20027;-72
2023/05/06 03:59:49;;;;;;;10.85;8.05;;;;;;;;;;5233937;28;20035;-72
2023/05/06 04:02:20;;;;;;;9.73;8.70;;;;;;;;;;5165565;28;20042;-72
2023/05/06 04:04:52;;;;;;;12.10;8.90;;;;;;;;;;5232963;28;20019;-72
2023/05/06 04:07:23;;;;;;;8.53;7.67;;;;;;;;;;5169582;28;20100;-72
2023/05/06 04:09:54;;;;;;;9.50;8.47;;;;;;;;;;5170593;28;20019;-72
2023/05/06 04:12:26;;;;;;;10.20;7.60;;;;;;;;;;5156645;28;20039;-72
2023/05/06 04:14:57;;;;;;;9.70;8.30;;;;;;;;;;5151642;28;20023;-72
2023/05/06 04:17:28;;;;;;;13.40;8.50;;;;;;;;;;5163332;28;20031;-71
2023/05/06 04:20:00;;;;;;;10.00;8.43;;;;;;;;;;5154929;28;20031;-72
2023/05/06 04:22:31;;;;;;;13.20;8.57;;;;;;;;;;5160869;28;20019;-73
2023/05/06 04:25:02;;;;;;;13.43;9.43;;;;;;;;;;5162433;28;20377;-73
2023/05/06 04:27:34;;;;;;;15.23;10.60;;;;;;;;;;5151561;28;20023;-71
2023/05/06 04:30:05;;;;;;;12.13;10.10;;;;;;;;;;5163694;28;20110;-74
2023/05/06 04:32:37;;;;;;;14.67;11.03;;;;;;;;;;5169406;28;20353;-72
2023/05/06 04:35:08;;;;;;;21.77;12.53;;;;;;;;;;5235956;28;20485;-73
2023/05/06 04:37:40;;;;;;;18.83;13.67;;;;;;;;;;5170337;28;20022;-73
2023/05/06 04:40:12;;;;;;;22.57;14.13;;;;;;;;;;5169859;28;20023;-73
2023/05/06 04:42:43;;;;;;;19.13;13.63;;;;;;;;;;5193704;28;20042;-73
2023/05/06 04:45:15;;;;;;;20.77;13.47;;;;;;;;;;5169534;28;20025;-72
2023/05/06 04:47:47;;;;;;;18.57;11.17;;;;;;;;;;5170356;28;20023;-72
2023/05/06 04:50:18;;;;;;;14.87;11.03;;;;;;;;;;5169078;28;20025;-72
2023/05/06 04:52:49;;;;;;;12.93;10.43;;;;;;;;;;5169588;28;20604;-73
2023/05/06 04:55:20;;;;;;;13.80;9.63;;;;;;;;;;5165480;28;20018;-73
2023/05/06 04:57:51;;;;;;;12.83;10.07;;;;;;;;;;5236442;28;20137;-73
2023/05/06 05:00:25;;;;;;;11.03;8.07;;;;;;;;;;5165934;28;20420;-73
2023/05/06 05:02:56;;;;;;;12.37;8.77;;;;;;;;;;5188576;28;20024;-76
2023/05/06 05:05:27;;;;;;;10.37;8.37;;;;;;;;;;5202893;28;20083;-72
2023/05/06 05:07:58;;;;;;;9.77;7.83;;;;;;;;;;5158002;28;20026;-72
2023/05/06 05:10:30;;;;;;;13.07;8.43;;;;;;;;;;5158318;28;20038;-71
2023/05/06 05:13:01;;;;;;;9.47;7.50;;;;;;;;;;5157600;28;20107;-70
2023/05/06 05:15:32;;;;;;;10.43;7.20;;;;;;;;;;5165875;28;20026;-71
2023/05/06 05:18:03;;;;;;;12.23;7.10;;;;;;;;;;5233718;28;20066;-71
2023/05/06 05:20:34;;;;;;;10.33;7.93;;;;;;;;;;5158128;28;20027;-71
2023/05/06 05:23:06;;;;;;;10.07;7.70;;;;;;;;;;5228274;28;20018;-71
2023/05/06 05:25:37;;;;;;;9.93;7.07;;;;;;;;;;5169143;28;20046;-71
2023/05/06 05:28:08;;;;;;;9.30;7.63;;;;;;;;;;5234536;28;20113;-72
2023/05/06 05:30:39;;;;;;;10.53;7.60;;;;;;;;;;5169999;28;20019;-72
2023/05/06 05:33:11;;;;;;;10.13;7.20;;;;;;;;;;5168555;28;20022;-72
2023/05/06 05:35:42;;;;;;;12.45;6.80;;;;;;;;;;5158038;28;20428;-72
2023/05/06 05:38:14;;;;;;;9.53;7.67;;;;;;;;;;5164700;28;20109;-72
2023/05/06 05:40:45;;;;;;;10.77;7.83;;;;;;;;;;5164912;28;20027;-72
2023/05/06 05:43:16;;;;;;;9.70;7.57;;;;;;;;;;5156765;28;20081;-72
2023/05/06 05:45:47;;;;;;;10.37;8.90;;;;;;;;;;5167978;28;20038;-72
2023/05/06 05:48:18;;;;;;;8.20;7.03;;;;;;;;;;5162964;28;20015;-72
2023/05/06 05:50:50;;;;;;;13.73;7.47;;;;;;;;;;5161430;28;20027;-72
2023/05/06 05:53:21;;;;;;;14.00;7.23;;;;;;;;;;5160739;28;20019;-72
2023/05/06 05:55:52;;;;;;;10.23;7.07;;;;;;;;;;5161977;28;20039;-72
2023/05/06 05:58:23;;;;;;;14.00;7.07;;;;;;;;;;5166983;28;20041;-71
2023/05/06 06:00:54;;;;;;;11.77;7.27;;;;;;;;;;5234425;28;20061;-72
2023/05/06 06:03:25;;;;;;;9.60;7.13;;;;;;;;;;5167945;28;20023;-73
2023/05/06 06:05:57;;;;;;;12.47;8.27;;;;;;;;;;5178660;28;20039;-72
2023/05/06 06:08:28;;;;;;;11.30;8.13;;;;;;;;;;5161614;28;20051;-72
2023/05/06 06:11:02;;;;;;;12.20;8.17;;;;;;;;;;5173640;28;20850;-71
2023/05/06 06:13:33;;;;;;;11.57;7.10;;;;;;;;;;5167503;28;20026;-71
2023/05/06 06:16:05;;;;;;;11.57;7.63;;;;;;;;;;5189181;28;20049;-71
2023/05/06 06:18:36;;;;;;;10.80;6.23;;;;;;;;;;5162949;28;20031;-71
2023/05/06 06:21:07;;;;;;;8.23;6.27;;;;;;;;;;5155473;28;20030;-71
2023/05/06 06:23:38;;;;;;;9.37;6.30;;;;;;;;;;5161261;28;20031;-71
2023/05/06 06:26:10;;;;;;;8.00;6.03;;;;;;;;;;5167269;28;20105;-70
2023/05/06 06:28:43;;;;;;;13.77;6.17;;;;;;;;;;5167232;28;20368;-70
2023/05/06 06:31:14;;;;;;;9.03;5.70;;;;;;;;;;5168799;28;20035;-69
2023/05/06 06:33:45;;;;;;;9.60;6.10;;;;;;;;;;5167490;28;20622;-71
2023/05/06 06:36:16;;;;;;;8.67;6.47;;;;;;;;;;5167091;28;20101;-71
2023/05/06 06:38:48;;;;;;;8.83;6.00;;;;;;;;;;5239731;28;20015;-70
2023/05/06 06:41:19;;;;;;;9.13;6.47;;;;;;;;;;5168472;28;20027;-70
2023/05/06 06:43:50;;;;;;;11.83;6.60;;;;;;;;;;5234713;28;20076;-70
2023/05/06 06:46:21;;;;;;;8.93;5.75;;;;;;;;;;5168945;28;20038;-71
2023/05/06 06:48:52;;;;;;;10.30;6.37;;;;;;;;;;5167653;28;20015;-70
2023/05/06 06:51:23;;;;;;;10.53;5.97;;;;;;;;;;5168381;28;20027;-70
2023/05/06 06:53:55;;;;;;;11.27;7.17;;;;;;;;;;5168147;28;20011;-71
2023/05/06 06:56:26;;;;;;;9.27;5.77;;;;;;;;;;5168223;28;20408;-71
2023/05/06 06:58:57;;;;;;;11.43;6.70;;;;;;;;;;5169208;28;20019;-71
2023/05/06 07:01:28;;;;;;;10.30;6.43;;;;;;;;;;5178709;28;20065;-71
2023/05/06 07:03:59;;;;;;;12.33;6.20;;;;;;;;;;5218233;28;20447;-71
2023/05/06 07:06:30;;;;;;;9.73;7.53;;;;;;;;;;5206978;28;20038;-71
2023/05/06 07:09:02;;;;;;;11.83;6.57;;;;;;;;;;5218882;28;20094;-71
2023/05/06 07:11:33;;;;;;;11.47;7.10;;;;;;;;;;5167983;28;20018;-71
2023/05/06 07:14:04;;;;;;;10.27;7.33;;;;;;;;;;5168284;28;20019;-71
2023/05/06 07:16:35;;;;;;;11.23;7.18;;;;;;;;;;5164270;28;20046;-72
2023/05/06 07:19:06;;;;;;;13.53;7.70;;;;;;;;;;5159512;28;20023;-72
2023/05/06 07:21:37;;;;;;;9.47;6.77;;;;;;;;;;5159154;28;20047;-73
2023/05/06 07:24:09;;;;;;;10.35;7.82;;;;;;;;;;5156935;28;20058;-72
2023/05/06 07:26:40;;;;;;;11.17;7.27;;;;;;;;;;5168556;28;20031;-73
2023/05/06 07:29:11;;;;;;;11.67;7.37;;;;;;;;;;5233810;28;20026;-73
2023/05/06 07:31:42;;;;;;;14.07;8.80;;;;;;;;;;5205274;28;20031;-70
2023/05/06 07:34:13;;;;;;;16.07;10.07;;;;;;;;;;5158378;28;20034;-70
2023/05/06 07:36:45;;;;;;;13.77;9.50;;;;;;;;;;5181563;28;20028;-69
2023/05/06 07:39:16;;;;;;;14.20;9.47;;;;;;;;;;5225062;28;20016;-69
2023/05/06 07:41:47;;;;;;;14.73;10.27;;;;;;;;;;5166504;28;20098;-70
2023/05/06 07:44:18;;;;;;;15.90;9.87;;;;;;;;;;5238859;28;20106;-69
2023/05/06 07:46:49;;;;;;;17.30;10.40;;;;;;;;;;5171736;28;20035;-70
2023/05/06 07:49:21;;;;;;;17.73;11.77;;;;;;;;;;5169678;28;20018;-70
2023/05/06 07:51:52;;;;;;;15.05;10.02;;;;;;;;;;5239855;28;20029;-69
2023/05/06 07:54:23;;;;;;;14.82;8.92;;;;;;;;;;5171356;28;20418;-71
2023/05/06 07:56:54;;;;;;;13.70;8.48;;;;;;;;;;5171050;28;20401;-70
2023/05/06 07:59:26;;;;;;;15.25;9.15;;;;;;;;;;5171409;28;20057;-70
2023/05/06 08:01:57;;;;;;;12.48;7.74;;;;;;;;;;5169780;28;20026;-71
2023/05/06 08:04:28;;;;;;;13.43;9.75;;;;;;;;;;5170741;28;20042;-70
2023/05/06 08:06:59;;;;;;;14.15;10.43;;;;;;;;;;5207545;28;20461;-74
2023/05/06 08:09:30;;;;;;;14.13;10.20;;;;;;;;;;5170413;28;20015;-74
2023/05/06 08:12:01;;;;;;;14.95;10.57;;;;;;;;;;5170744;28;20504;-74
2023/05/06 08:14:33;;;;;;;14.10;9.52;;;;;;;;;;5170359;28;20455;-74
2023/05/06 08:17:04;;;;;;;13.20;9.43;;;;;;;;;;5170604;28;20062;-74
2023/05/06 08:19:35;;;;;;;14.68;9.15;;;;;;;;;;5169624;28;20030;-74
2023/05/06 08:22:06;;;;;;;11.10;8.43;;;;;;;;;;5170392;28;20351;-74
2023/05/06 08:24:37;;;;;;;12.30;8.82;;;;;;;;;;5166398;28;20039;-73
2023/05/06 08:27:09;;;;;;;12.22;8.82;;;;;;;;;;5169169;28;20027;-74
2023/05/06 08:29:40;;;;;;;11.93;8.65;;;;;;;;;;5170001;28;20035;-74
2023/05/06 08:32:11;;;;;;;13.38;7.60;;;;;;;;;;5169966;28;20061;-75
2023/05/06 08:34:42;;;;;;;10.77;8.07;;;;;;;;;;5168894;28;20580;-74
2023/05/06 08:37:13;;;;;;;8.30;6.25;;;;;;;;;;5203722;28;20060;-74
2023/05/06 08:39:44;;;;;;;11.40;6.38;;;;;;;;;;5237708;28;20054;-74
2023/05/06 08:42:16;;;;;;;7.35;6.15;;;;;;;;;;5169593;28;20011;-74
2023/05/06 08:44:50;;;;;;;7.40;4.82;;;;;;;;;;5170388;28;20015;-74
2023/05/06 08:47:21;;;;;;;7.60;5.40;;;;;;;;;;5166539;28;20026;-74
2023/05/06 08:49:53;;;;;;;6.72;4.88;;;;;;;;;;5236330;28;20080;-74
2023/05/06 08:52:25;;;;;;;10.10;4.93;;;;;;;;;;5169893;28;20034;-74
2023/05/06 08:55:00;;;;;;;10.13;6.03;;;;;;;;;;5169890;28;20373;-74
2023/05/06 08:57:31;;;;;;;7.72;5.10;;;;;;;;;;5170542;28;20405;-74
2023/05/06 09:00:03;;;;;;;8.65;5.20;;;;;;;;;;5170538;28;20069;-75
2023/05/06 09:02:34;;;;;;;10.82;4.75;;;;;;;;;;5167101;28;20035;-74
2023/05/06 09:05:07;;;;;;;6.80;4.72;;;;;;;;;;5166088;28;20121;-74
2023/05/06 09:07:38;;;;;;;7.80;5.05;;;;;;;;;;5167112;28;20085;-74
2023/05/06 09:10:12;;;;;;;6.43;4.45;;;;;;;;;;5164896;28;20023;-74
2023/05/06 09:12:44;;;;;;;5.85;3.88;;;;;;;;;;5164976;28;20054;-74
2023/05/06 09:15:15;;;;;;;6.88;3.92;;;;;;;;;;5162561;28;20019;-75
2023/05/06 09:17:47;;;;;;;7.20;4.07;;;;;;;;;;5164548;28;20054;-74
2023/05/06 09:20:18;;;;;;;7.78;4.85;;;;;;;;;;5169120;28;20061;-74
2023/05/06 09:22:49;;;;;;;7.95;4.13;;;;;;;;;;5168322;28;20031;-74
2023/05/06 09:25:20;;;;;;;6.80;3.85;;;;;;;;;;5160302;28;20121;-74
2023/05/06 09:28:01;;;;;;;6.75;3.53;;;;;;;;;;5169862;28;20026;-74
2023/05/06 09:30:33;;;;;;;6.03;3.15;;;;;;;;;;5169407;28;20023;-74
2023/05/06 09:33:05;;;;;;;6.82;3.00;;;;;;;;;;5166345;28;20061;-77
2023/05/06 09:35:41;;;;;;;6.45;3.53;;;;;;;;;;5161027;28;20110;-75
2023/05/06 09:38:12;;;;;;;7.47;2.42;;;;;;;;;;5239117;28;20372;-74
2023/05/06 09:40:43;;;;;;;4.32;2.20;;;;;;;;;;5168163;28;20105;-74
2023/05/06 09:43:16;;;;;;;6.00;2.03;;;;;;;;;;5169158;28;20100;-74
2023/05/06 09:45:47;;;;;;;4.15;1.85;;;;;;;;;;5169325;28;20038;-74
2023/05/06 09:48:19;;;;;;;3.90;1.50;;;;;;;;;;5167255;28;20053;-74
2023/05/06 09:50:50;;;;;;;4.20;1.33;;;;;;;;;;5169624;28;20050;-74
2023/05/06 09:53:22;;;;;;;5.00;1.80;;;;;;;;;;5235604;28;20033;-74
2023/05/06 09:55:55;;;;;;;5.50;1.70;;;;;;;;;;5168803;28;20027;-74
2023/05/06 09:58:26;;;;;;;2.95;1.40;;;;;;;;;;5235443;28;20656;-74
2023/05/06 10:00:58;;;;;;;3.65;1.30;;;;;;;;;;5168624;28;20085;-74
2023/05/06 10:03:29;;;;;;;3.08;1.40;;;;;;;;;;5233821;28;20033;-74
2023/05/06 10:06:01;;;;;;;2.60;1.10;;;;;;;;;;5168796;28;20034;-74
2023/05/06 10:08:33;;;;;;;3.38;1.85;;;;;;;;;;5234566;28;20015;-72
2023/05/06 10:11:05;;;;;;;13.70;8.67;;;;;;;;;;5223666;28;20030;-73
2023/05/06 10:13:37;;;;;;;8.63;5.57;;;;;;;;;;5211482;28;20015;-72
2023/05/06 10:16:09;;;;;;;3.97;1.57;;;;;;;;;;5168681;28;20408;-72
2023/05/06 10:18:41;;;;;;;7.68;5.82;;;;;;;;;;5166845;28;20596;-72
2023/05/06 10:21:16;;;;;;;3.47;1.33;;;;;;;;;;5234999;28;20098;-73
2023/05/06 10:23:54;;;;;;;9.77;6.53;;;;;;;;;;5255575;28;20021;-73
2023/05/06 10:26:26;;;;;;;3.70;1.30;;;;;;;;;;5234678;28;20559;-73
2023/05/06 10:28:59;;;;;;;3.05;1.42;;;;;;;;;;5239903;28;20125;-73
2023/05/06 10:31:31;;;;;;;7.22;2.92;;;;;;;;;;5185490;28;20417;-71
2023/05/06 10:34:03;;;;;;;3.65;1.75;;;;;;;;;;5169932;28;20027;-73
2023/05/06 10:36:35;;;;;;;5.32;1.50;;;;;;;;;;5181087;28;20018;-67
2023/05/06 10:39:08;;;;;;;7.65;3.97;;;;;;;;;;5201424;28;20166;-67
2023/05/06 10:41:40;;;;;;;4.97;2.70;;;;;;;;;;5163014;28;20023;-68
2023/05/06 10:44:11;;;;;;;3.67;2.10;;;;;;;;;;5167690;28;20022;-70
2023/05/06 10:47:01;;;;;;;4.15;2.58;;;;;;;;;;5172720;28;20035;-67
2023/05/06 10:49:32;;;;;;;3.53;1.90;;;;;;;;;;5206342;28;20029;-70
2023/05/06 10:52:13;;;;;;;5.03;2.35;;;;;;;;;;5186897;28;20096;-67
2023/05/06 10:54:49;;;;;;;5.53;2.80;;;;;;;;;;5185966;28;20032;-68
2023/05/06 10:57:25;;;;;;;4.38;2.13;;;;;;;;;;5168539;28;20027;-69
2023/05/06 10:59:56;;;;;;;4.80;2.40;;;;;;;;;;5226451;28;20040;-67
2023/05/06 11:02:28;;;;;;;4.05;1.40;;;;;;;;;;5203170;28;20026;-69
2023/05/06 11:05:00;;;;;;;4.13;1.55;;;;;;;;;;5183860;28;20020;-70
2023/05/06 11:07:32;;;;;;;5.13;1.30;;;;;;;;;;5157735;28;20030;-70
2023/05/06 11:10:06;;;;;;;4.38;1.48;;;;;;;;;;5231153;28;20013;-67
2023/05/06 11:12:48;;;;;;;3.13;1.42;;;;;;;;;;5225386;28;20085;-70
2023/05/06 11:15:24;;;;;;;3.22;1.45;;;;;;;;;;5169556;28;20382;-69
2023/05/06 11:17:55;;;;;;;4.40;1.58;;;;;;;;;;5200375;28;20103;-68
2023/05/06 11:20:26;;;;;;;5.30;1.58;;;;;;;;;;5188076;28;20172;-69
2023/05/06 11:22:57;;;;;;;3.33;1.38;;;;;;;;;;5227422;28;20071;-68
2023/05/06 11:25:39;;;;;;;5.82;1.55;;;;;;;;;;5164566;28;20124;-70
2023/05/06 11:28:11;;;;;;;3.50;1.40;;;;;;;;;;5256739;28;20024;-69
2023/05/06 11:30:43;;;;;;;2.45;1.58;;;;;;;;;;5270477;28;20020;-70
2023/05/06 11:33:17;;;;;;;2.53;1.30;;;;;;;;;;5178670;28;20646;-68
2023/05/06 11:35:49;;;;;;;4.10;1.55;;;;;;;;;;5166167;28;20019;-71
2023/05/06 11:38:20;;;;;;;4.63;1.38;;;;;;;;;;5167108;28;20042;-72
2023/05/06 11:40:51;;;;;;;2.55;1.48;;;;;;;;;;5207689;28;20029;-70
2023/05/06 11:43:22;;;;;;;4.72;1.60;;;;;;;;;;5191081;28;20102;-69
2023/05/06 11:45:53;;;;;;;2.98;1.22;;;;;;;;;;5166143;28;20088;-68
2023/05/06 11:48:25;;;;;;;4.95;1.80;;;;;;;;;;5229378;28;20035;-69
2023/05/06 11:50:56;;;;;;;2.38;1.00;;;;;;;;;;5202331;28;20422;-71
2023/05/06 11:53:28;;;;;;;3.92;1.50;;;;;;;;;;5221399;28;20065;-68
2023/05/06 11:55:59;;;;;;;3.25;1.00;;;;;;;;;;5181391;28;20030;-72
2023/05/06 11:58:31;;;;;;;2.55;1.10;;;;;;;;;;5237240;28;20491;-72
2023/05/06 12:01:03;;;;;;;2.38;1.20;;;;;;;;;;5158625;28;20037;-68
2023/05/06 12:03:34;;;;;;;4.68;1.50;;;;;;;;;;5161854;28;20049;-69
2023/05/06 12:06:05;;;;;;;3.40;1.48;;;;;;;;;;5167982;28;20038;-70
2023/05/06 12:08:37;;;;;;;3.40;1.20;;;;;;;;;;5162174;28;20100;-71
2023/05/06 12:11:08;;;;;;;3.10;1.20;;;;;;;;;;5166676;28;20015;-70
2023/05/06 12:13:40;;;;;;;3.75;0.90;;;;;;;;;;5233268;28;20022;-70
2023/05/06 12:16:11;;;;;;;4.60;1.25;;;;;;;;;;5162079;28;20527;-72
2023/05/06 12:18:43;;;;;;;3.13;1.15;;;;;;;;;;5162372;28;20542;-70
2023/05/06 12:21:19;;;;;;;3.53;1.13;;;;;;;;;;5164815;28;20026;-71
2023/05/06 12:23:51;;;;;;;3.60;1.23;;;;;;;;;;5147703;28;20023;-70
2023/05/06 12:26:23;;;;;;;4.80;1.20;;;;;;;;;;5165254;28;20046;-71
2023/05/06 12:29:06;;;;;;;3.88;1.58;;;;;;;;;;5170249;28;20138;-71
2023/05/06 12:31:38;;;;;;;3.58;1.45;;;;;;;;;;5170791;28;20023;-70
2023/05/06 12:34:09;;;;;;;3.42;1.40;;;;;;;;;;5169498;28;20026;-72
2023/05/06 12:36:41;;;;;;;3.65;1.52;;;;;;;;;;5160439;28;20011;-72
2023/05/06 12:39:12;;;;;;;5.00;1.65;;;;;;;;;;5170578;28;20054;-70
2023/05/06 12:41:44;;;;;;;2.78;1.00;;;;;;;;;;5170196;28;20516;-72
2023/05/06 12:44:28;;;;;;;5.57;1.15;;;;;;;;;;5170636;28;20026;-70
2023/05/06 12:47:00;;;;;;;4.07;1.20;;;;;;;;;;5166990;28;20019;-67
2023/05/06 12:49:52;;;;;;;2.03;1.10;;;;;;;;;;5158206;28;20080;-71
2023/05/06 12:52:27;;;;;;;3.65;1.10;;;;;;;;;;5234336;28;20114;-74
2023/05/06 12:54:59;;;;;;;4.35;1.23;;;;;;;;;;5233966;28;20050;-76
2023/05/06 12:57:30;;;;;;;3.85;1.20;;;;;;;;;;5170287;28;20546;-72
2023/05/06 13:00:02;;;;;;;3.33;1.50;;;;;;;;;;5215680;28;20017;-72
2023/05/06 13:02:33;;;;;;;3.88;1.10;;;;;;;;;;5220461;28;20048;-70
2023/05/06 13:05:04;;;;;;;2.42;0.80;;;;;;;;;;5257797;28;20538;-71
2023/05/06 13:07:35;;;;;;;2.67;1.25;;;;;;;;;;5251299;28;20430;-69
2023/05/06 13:10:07;;;;;;;4.72;1.15;;;;;;;;;;5176940;28;20101;-70
2023/05/06 13:12:38;;;;;;;3.90;1.10;;;;;;;;;;5191204;28;20050;-70
2023/05/06 13:15:09;;;;;;;4.07;1.20;;;;;;;;;;5189389;28;20019;-69
2023/05/06 13:17:40;;;;;;;4.22;1.05;;;;;;;;;;5237342;28;20058;-70
2023/05/06 13:20:12;;;;;;;4.38;1.24;;;;;;;;;;5235943;28;20030;-70
2023/05/06 13:22:43;;;;;;;4.70;1.02;;;;;;;;;;5169455;28;20019;-73
2023/05/06 13:25:14;;;;;;;6.22;1.10;;;;;;;;;;5157486;28;20087;-69
2023/05/06 13:27:46;;;;;;;3.60;1.00;;;;;;;;;;5152114;28;20034;-68
2023/05/06 13:30:17;;;;;;;3.63;1.08;;;;;;;;;;5146972;28;20080;-69
2023/05/06 13:32:48;;;;;;;2.63;1.10;;;;;;;;;;5147106;28;20035;-74
2023/05/06 13:35:19;;;;;;;3.67;1.05;;;;;;;;;;5147897;28;20046;-70
2023/05/06 13:37:51;;;;;;;4.18;1.25;;;;;;;;;;5146251;28;20042;-67
2023/05/06 13:40:22;;;;;;;2.60;1.00;;;;;;;;;;5148161;28;20026;-69
2023/05/06 13:42:55;;;;;;;2.05;0.88;;;;;;;;;;5147224;28;20043;-72
2023/05/06 13:45:26;;;;;;;3.00;1.33;;;;;;;;;;5151969;28;20443;-72
2023/05/06 13:47:57;;;;;;;2.62;1.10;;;;;;;;;;5146832;28;20031;-70
2023/05/06 13:50:28;;;;;;;2.92;1.27;;;;;;;;;;5148000;28;20019;-72
2023/05/06 13:52:59;;;;;;;4.30;1.08;;;;;;;;;;5221044;28;20051;-72
2023/05/06 13:55:31;;;;;;;3.78;1.40;;;;;;;;;;5140865;28;20131;-69
2023/05/06 13:58:02;;;;;;;3.67;1.17;;;;;;;;;;5150787;28;20049;-70
2023/05/06 14:00:35;;;;;;;4.85;1.60;;;;;;;;;;5145278;28;20145;-72
2023/05/06 14:03:06;;;;;;;5.78;1.40;;;;;;;;;;5147016;28;20553;-70
2023/05/06 14:05:37;;;;;;;2.75;1.30;;;;;;;;;;5147212;28;20127;-69
2023/05/06 14:08:09;;;;;;;4.63;1.52;;;;;;;;;;5144776;28;20070;-71
2023/05/06 14:10:40;;;;;;;2.45;1.20;;;;;;;;;;5212849;28;20073;-71
2023/05/06 14:13:11;;;;;;;5.72;1.40;;;;;;;;;;5145676;28;20075;-69
2023/05/06 14:15:42;;;;;;;2.86;1.22;;;;;;;;;;5144706;28;20027;-72
2023/05/06 14:18:13;;;;;;;3.50;1.16;;;;;;;;;;5143937;28;20034;-70
2023/05/06 14:20:44;;;;;;;4.85;1.15;;;;;;;;;;5145485;28;20065;-69
2023/05/06 14:23:16;;;;;;;4.13;1.40;;;;;;;;;;5143821;28;20415;-69
2023/05/06 14:25:47;;;;;;;3.60;1.30;;;;;;;;;;5144155;28;20054;-68
2023/05/06 14:28:18;;;;;;;4.50;1.17;;;;;;;;;;5148518;28;20031;-70
2023/05/06 14:30:50;;;;;;;4.57;1.35;;;;;;;;;;5146622;28;20023;-72
2023/05/06 14:33:22;;;;;;;2.90;1.33;;;;;;;;;;5146536;28;20042;-68
2023/05/06 14:35:53;;;;;;;3.40;1.13;;;;;;;;;;5145257;28;21314;-70
2023/05/06 14:38:24;;;;;;;4.15;1.60;;;;;;;;;;5153922;28;20027;-68
2023/05/06 14:40:56;;;;;;;3.75;1.30;;;;;;;;;;5220666;28;20063;-72
2023/05/06 14:43:27;;;;;;;2.97;0.70;;;;;;;;;;5142805;28;20109;-71
2023/05/06 14:45:58;;;;;;;3.03;0.90;;;;;;;;;;5142114;28;20045;-71
2023/05/06 14:48:30;;;;;;;3.40;1.38;;;;;;;;;;5143779;28;21901;-74
2023/05/06 14:51:02;;;;;;;2.75;0.80;;;;;;;;;;5146845;28;20023;-71
2023/05/06 14:53:33;;;;;;;1.40;0.77;;;;;;;;;;5148473;28;20565;-70
2023/05/06 14:56:06;;;;;;;3.25;1.17;;;;;;;;;;5209975;28;20153;-71
2023/05/06 14:58:38;;;;;;;5.07;1.27;;;;;;;;;;5144220;28;20448;-70
2023/05/06 15:01:09;;;;;;;4.53;1.60;;;;;;;;;;5143634;28;20027;-71